Time;durP1;ratioP1;P1;durP2;ratioP2;P2;SDS_P1;SDS_P2;PMS_P1;PMS_P2;Temp;Humidity;BMP_temperature;BMP_pressure;BME280_temperature;BME280_humidity;BME280_pressure;Samples;Min_cycle;Max_cycle;Signal;HPM_P1;HPM_P2
2022/04/07 00:00:52;;;;;;;0.33;0.33;;;8.40;99.90;;;;;;5034068;28;20788;-67
2022/04/07 00:03:18;;;;;;;0.30;0.30;;;8.50;99.90;;;;;;5034224;28;20189;-67
2022/04/07 00:05:44;;;;;;;0.30;0.30;;;8.70;99.90;;;;;;5033979;28;20263;-67
2022/04/07 00:08:10;;;;;;;0.30;0.30;;;8.60;99.90;;;;;;5034225;28;20674;-67
2022/04/07 00:10:37;;;;;;;0.30;0.30;;;8.50;99.90;;;;;;5033856;28;20245;-67
2022/04/07 00:13:03;;;;;;;0.30;0.30;;;8.30;99.90;;;;;;5033797;28;20515;-67
2022/04/07 00:15:29;;;;;;;0.30;0.30;;;8.50;99.90;;;;;;5034004;28;20173;-67
2022/04/07 00:17:55;;;;;;;0.40;0.40;;;8.30;99.90;;;;;;5033945;28;20240;-67
2022/04/07 00:20:21;;;;;;;0.30;0.30;;;8.40;99.90;;;;;;5033747;28;20258;-67
2022/04/07 00:22:48;;;;;;;0.30;0.30;;;8.30;99.90;;;;;;5033647;28;20188;-67
2022/04/07 00:25:13;;;;;;;0.30;0.30;;;8.30;99.90;;;;;;5033726;28;20211;-67
2022/04/07 00:27:39;;;;;;;0.30;0.30;;;8.20;99.90;;;;;;5033728;28;20177;-67
2022/04/07 00:30:06;;;;;;;0.30;0.30;;;8.40;99.90;;;;;;5033325;28;20200;-67
2022/04/07 00:32:31;;;;;;;0.40;0.40;;;8.50;99.90;;;;;;5033596;28;20183;-67
2022/04/07 00:34:57;;;;;;;0.30;0.30;;;8.50;99.90;;;;;;5033832;28;20181;-67
2022/04/07 00:37:23;;;;;;;0.40;0.40;;;8.30;99.90;;;;;;5033605;28;20177;-67
2022/04/07 00:39:52;;;;;;;0.30;0.30;;;8.00;99.90;;;;;;5033408;28;20205;-67
2022/04/07 00:42:18;;;;;;;0.30;0.30;;;8.10;99.90;;;;;;5033933;28;20178;-67
2022/04/07 00:44:44;;;;;;;0.30;0.30;;;8.10;99.90;;;;;;5033564;28;20263;-67
2022/04/07 00:47:13;;;;;;;0.30;0.30;;;8.20;99.90;;;;;;5033740;28;20172;-67
2022/04/07 00:49:38;;;;;;;0.30;0.30;;;8.20;99.90;;;;;;5048523;28;20198;-67
2022/04/07 00:52:07;;;;;;;0.30;0.30;;;8.20;99.90;;;;;;5033441;28;20636;-67
2022/04/07 00:54:34;;;;;;;0.40;0.40;;;8.10;99.90;;;;;;5033497;28;20564;-67
2022/04/07 00:57:00;;;;;;;0.40;0.40;;;7.80;99.90;;;;;;5033347;28;20181;-67
2022/04/07 00:59:27;;;;;;;0.30;0.30;;;7.80;99.90;;;;;;5033284;28;20334;-67
2022/04/07 01:01:53;;;;;;;0.40;0.40;;;8.20;99.90;;;;;;5033274;28;20185;-67
2022/04/07 01:04:19;;;;;;;0.30;0.30;;;8.30;99.90;;;;;;5033186;28;20168;-67
2022/04/07 01:06:47;;;;;;;0.30;0.30;;;8.20;99.90;;;;;;5033330;28;20624;-67
2022/04/07 01:09:17;;;;;;;0.30;0.30;;;8.10;99.90;;;;;;5032949;28;20199;-67
2022/04/07 01:11:44;;;;;;;0.40;0.40;;;8.00;99.90;;;;;;5033464;28;20201;-67
2022/04/07 01:14:10;;;;;;;0.30;0.30;;;8.20;99.90;;;;;;5033334;28;20176;-67
2022/04/07 01:16:36;;;;;;;0.30;0.30;;;8.10;99.90;;;;;;5033162;28;20183;-67
2022/04/07 01:19:03;;;;;;;0.30;0.30;;;8.00;99.90;;;;;;5032935;28;20279;-67
2022/04/07 01:21:32;;;;;;;0.30;0.30;;;7.70;99.90;;;;;;5033141;28;20192;-67
2022/04/07 01:24:03;;;;;;;0.40;0.40;;;7.50;99.90;;;;;;5033246;28;20331;-67
2022/04/07 01:26:39;;;;;;;0.40;0.40;;;7.80;99.90;;;;;;5033044;28;20532;-67
2022/04/07 01:29:16;;;;;;;0.40;0.40;;;7.90;99.90;;;;;;5033264;28;20540;-67
2022/04/07 01:31:42;;;;;;;0.40;0.40;;;8.20;99.90;;;;;;5033355;28;20176;-67
2022/04/07 01:34:13;;;;;;;0.40;0.40;;;8.00;99.90;;;;;;5033351;28;20626;-67
2022/04/07 01:36:41;;;;;;;0.30;0.30;;;7.40;99.90;;;;;;5033217;28;20172;-67
2022/04/07 01:39:09;;;;;;;0.30;0.30;;;7.30;99.90;;;;;;5032916;28;20188;-67
2022/04/07 01:41:36;;;;;;;0.40;0.40;;;7.70;99.90;;;;;;5033203;28;20171;-67
2022/04/07 01:44:03;;;;;;;0.30;0.30;;;7.70;99.90;;;;;;5032965;28;20168;-67
2022/04/07 01:46:29;;;;;;;0.30;0.30;;;8.00;99.90;;;;;;5032946;28;20213;-67
2022/04/07 01:48:57;;;;;;;0.30;0.30;;;8.20;99.90;;;;;;5036310;28;20172;-67
2022/04/07 01:51:24;;;;;;;0.30;0.30;;;8.10;99.90;;;;;;5036680;28;20165;-67
2022/04/07 01:53:51;;;;;;;0.30;0.30;;;8.00;99.90;;;;;;5036504;28;20254;-67
2022/04/07 01:56:18;;;;;;;0.30;0.30;;;8.00;99.90;;;;;;5036507;28;20178;-67
2022/04/07 01:58:45;;;;;;;0.30;0.30;;;8.20;99.90;;;;;;5036584;28;20528;-67
2022/04/07 02:01:11;;;;;;;0.30;0.30;;;8.10;99.90;;;;;;5036387;28;20198;-67
2022/04/07 02:03:38;;;;;;;0.30;0.30;;;7.90;99.90;;;;;;5036542;28;20188;-67
2022/04/07 02:06:30;;;;;;;0.40;0.40;;;7.90;99.90;;;;;;5036427;28;20703;-67
2022/04/07 02:08:56;;;;;;;0.30;0.30;;;8.20;99.90;;;;;;5035958;28;20529;-67
2022/04/07 02:11:22;;;;;;;0.30;0.30;;;8.30;99.90;;;;;;5036355;28;20174;-67
2022/04/07 02:13:49;;;;;;;0.30;0.30;;;8.30;99.90;;;;;;5036482;28;20495;-67
2022/04/07 02:16:15;;;;;;;0.30;0.30;;;8.50;99.90;;;;;;5036278;28;20415;-67
2022/04/07 02:18:41;;;;;;;0.30;0.30;;;8.70;99.90;;;;;;5036161;28;20231;-67
2022/04/07 02:21:07;;;;;;;0.30;0.30;;;8.50;99.90;;;;;;5035760;28;20187;-67
2022/04/07 02:23:40;;;;;;;0.40;0.40;;;8.40;99.90;;;;;;5036107;28;20196;-67
2022/04/07 02:26:10;;;;;;;0.30;0.30;;;8.00;99.90;;;;;;5036138;28;20674;-67
2022/04/07 02:28:36;;;;;;;0.85;0.85;;;8.10;99.90;;;;;;5035981;28;20216;-67
2022/04/07 02:31:01;;;;;;;0.33;0.33;;;8.20;99.90;;;;;;5035820;28;20196;-67
2022/04/07 02:33:27;;;;;;;0.40;0.40;;;7.90;99.90;;;;;;5036238;28;20566;-67
2022/04/07 02:35:53;;;;;;;0.30;0.30;;;7.80;99.90;;;;;;5036088;28;20171;-67
2022/04/07 02:38:18;;;;;;;0.30;0.30;;;8.00;99.90;;;;;;5036196;28;20440;-67
2022/04/07 02:40:44;;;;;;;0.30;0.30;;;8.10;99.90;;;;;;5035541;28;20204;-67
2022/04/07 02:43:09;;;;;;;0.40;0.40;;;8.00;99.90;;;;;;5035756;28;20172;-67
2022/04/07 02:45:35;;;;;;;0.30;0.30;;;8.10;99.90;;;;;;5035673;28;20232;-67
2022/04/07 02:48:01;;;;;;;0.33;0.33;;;8.20;99.90;;;;;;5035717;28;20164;-67
2022/04/07 02:50:27;;;;;;;0.30;0.30;;;7.80;99.90;;;;;;5035389;28;20214;-67
2022/04/07 02:52:52;;;;;;;0.30;0.30;;;7.60;99.90;;;;;;5035511;28;20179;-67
2022/04/07 02:55:18;;;;;;;0.30;0.30;;;7.50;99.90;;;;;;5035463;28;20661;-66
2022/04/07 02:57:43;;;;;;;0.30;0.30;;;7.60;99.90;;;;;;5035399;28;20172;-67
2022/04/07 03:00:09;;;;;;;0.30;0.30;;;7.70;99.90;;;;;;5035078;28;20187;-67
2022/04/07 03:02:35;;;;;;;0.30;0.30;;;7.70;99.90;;;;;;5034409;28;20666;-67
2022/04/07 03:05:01;;;;;;;0.37;0.37;;;8.20;99.90;;;;;;5035375;28;20208;-67
2022/04/07 03:07:26;;;;;;;0.30;0.30;;;8.20;99.90;;;;;;5035356;28;20180;-67
2022/04/07 03:09:52;;;;;;;0.30;0.30;;;8.00;99.90;;;;;;5034853;28;20200;-67
2022/04/07 03:12:18;;;;;;;0.40;0.40;;;7.90;99.90;;;;;;5035186;28;20251;-67
2022/04/07 03:14:44;;;;;;;0.30;0.30;;;8.00;99.90;;;;;;5035200;28;20171;-67
2022/04/07 03:17:10;;;;;;;0.30;0.30;;;7.90;99.90;;;;;;5035095;28;20230;-67
2022/04/07 03:19:35;;;;;;;0.30;0.30;;;7.90;99.90;;;;;;5034859;28;20194;-67
2022/04/07 03:22:01;;;;;;;1.47;1.43;;;8.00;99.90;;;;;;5034783;28;20196;-67
2022/04/07 03:24:27;;;;;;;0.40;0.40;;;8.20;99.90;;;;;;5034842;28;20406;-67
2022/04/07 03:26:53;;;;;;;0.30;0.30;;;8.50;99.90;;;;;;5034836;28;20172;-67
2022/04/07 03:29:22;;;;;;;0.30;0.30;;;8.40;99.90;;;;;;5034550;28;20264;-67
2022/04/07 03:31:48;;;;;;;0.30;0.30;;;8.50;99.90;;;;;;5034839;28;20404;-67
2022/04/07 03:34:14;;;;;;;0.30;0.30;;;8.00;99.90;;;;;;5034852;28;20197;-67
2022/04/07 03:36:40;;;;;;;0.30;0.30;;;7.40;99.90;;;;;;5034684;28;20230;-67
2022/04/07 03:39:06;;;;;;;0.30;0.30;;;7.30;99.90;;;;;;5034419;28;20451;-67
2022/04/07 03:41:31;;;;;;;0.30;0.30;;;7.50;99.90;;;;;;5034499;28;20732;-67
2022/04/07 03:43:57;;;;;;;0.40;0.40;;;7.40;99.90;;;;;;5034878;28;20181;-67
2022/04/07 03:46:23;;;;;;;0.73;0.73;;;7.50;99.90;;;;;;5034535;28;20195;-67
2022/04/07 03:48:49;;;;;;;0.30;0.30;;;7.80;99.90;;;;;;5034329;28;20661;-67
2022/04/07 03:51:16;;;;;;;0.40;0.40;;;7.80;99.90;;;;;;5034263;28;20491;-67
2022/04/07 03:53:41;;;;;;;0.40;0.40;;;7.90;99.90;;;;;;5034281;28;20202;-67
2022/04/07 03:56:07;;;;;;;0.30;0.30;;;7.70;99.90;;;;;;5034335;28;20541;-67
2022/04/07 03:58:33;;;;;;;0.30;0.30;;;7.80;99.90;;;;;;5034490;28;20748;-67
2022/04/07 04:00:58;;;;;;;0.30;0.30;;;7.60;99.90;;;;;;5033667;28;20215;-67
2022/04/07 04:03:24;;;;;;;0.30;0.30;;;8.10;99.90;;;;;;5033956;28;20169;-67
2022/04/07 04:05:50;;;;;;;0.30;0.30;;;8.40;99.90;;;;;;5033938;28;20278;-67
2022/04/07 04:08:15;;;;;;;0.30;0.30;;;8.00;99.90;;;;;;5034135;28;20199;-67
2022/04/07 04:10:41;;;;;;;0.30;0.30;;;7.90;99.90;;;;;;5033438;28;20247;-67
2022/04/07 04:13:06;;;;;;;0.30;0.30;;;7.70;99.90;;;;;;5033954;28;20172;-67
2022/04/07 04:15:32;;;;;;;0.30;0.30;;;7.70;99.90;;;;;;5034082;28;20169;-67
2022/04/07 04:17:58;;;;;;;0.30;0.30;;;7.90;99.90;;;;;;5034089;28;20208;-67
2022/04/07 04:20:23;;;;;;;0.40;0.40;;;7.50;99.90;;;;;;5033766;28;20687;-67
2022/04/07 04:22:50;;;;;;;0.40;0.40;;;7.60;99.90;;;;;;5034011;28;20190;-67
2022/04/07 04:25:16;;;;;;;0.30;0.30;;;8.00;99.90;;;;;;5033749;28;20200;-67
2022/04/07 04:27:42;;;;;;;0.30;0.30;;;8.30;99.90;;;;;;5033940;28;20173;-67
2022/04/07 04:30:08;;;;;;;0.30;0.30;;;8.30;99.90;;;;;;5033374;28;20624;-67
2022/04/07 04:32:34;;;;;;;0.30;0.30;;;8.00;99.90;;;;;;5033573;28;20174;-67
2022/04/07 04:35:00;;;;;;;0.30;0.30;;;8.10;99.90;;;;;;5033557;28;20210;-67
2022/04/07 04:37:26;;;;;;;0.40;0.40;;;8.30;99.90;;;;;;5033833;28;20182;-67
2022/04/07 04:39:54;;;;;;;0.30;0.30;;;8.50;99.90;;;;;;5032443;28;20292;-67
2022/04/07 04:42:20;;;;;;;0.40;0.40;;;8.70;99.90;;;;;;5033620;28;20629;-67
2022/04/07 04:44:47;;;;;;;0.30;0.30;;;8.40;99.90;;;;;;5033265;28;20189;-67
2022/04/07 04:47:13;;;;;;;0.30;0.30;;;8.40;99.90;;;;;;5033308;28;20173;-67
2022/04/07 04:49:42;;;;;;;0.30;0.30;;;8.30;99.90;;;;;;5033160;28;20200;-67
2022/04/07 04:52:11;;;;;;;0.30;0.30;;;7.70;99.90;;;;;;5033676;28;20463;-67
2022/04/07 04:54:37;;;;;;;0.30;0.30;;;7.80;99.90;;;;;;5033520;28;20644;-67
2022/04/07 04:57:03;;;;;;;0.30;0.30;;;8.20;99.90;;;;;;5033281;28;20169;-67
2022/04/07 04:59:29;;;;;;;0.30;0.30;;;8.40;99.90;;;;;;5032886;28;20276;-67
2022/04/07 05:01:55;;;;;;;0.30;0.30;;;8.60;99.90;;;;;;5033376;28;20265;-67
2022/04/07 05:04:20;;;;;;;0.30;0.30;;;8.70;99.10;;;;;;5033595;28;20173;-67
2022/04/07 05:06:46;;;;;;;0.30;0.30;;;8.10;99.80;;;;;;5033273;28;20680;-67
2022/04/07 05:09:12;;;;;;;0.30;0.30;;;8.00;99.90;;;;;;5033213;28;20216;-67
2022/04/07 05:11:37;;;;;;;0.30;0.30;;;7.90;99.90;;;;;;5033440;28;20253;-67
2022/04/07 05:14:03;;;;;;;0.30;0.30;;;8.40;99.90;;;;;;5033435;28;20169;-67
2022/04/07 05:16:29;;;;;;;0.30;0.30;;;8.40;99.90;;;;;;5033333;28;20626;-67
2022/04/07 05:18:54;;;;;;;0.30;0.30;;;8.30;99.90;;;;;;5033377;28;20225;-67
2022/04/07 05:21:20;;;;;;;0.30;0.30;;;8.10;99.90;;;;;;5033147;28;20220;-67
2022/04/07 05:23:46;;;;;;;0.40;0.40;;;8.10;99.90;;;;;;5036646;28;20176;-67
2022/04/07 05:26:15;;;;;;;0.30;0.30;;;8.20;99.90;;;;;;5037195;28;20193;-67
2022/04/07 05:28:42;;;;;;;0.40;0.40;;;8.00;99.90;;;;;;5036917;28;20175;-67
2022/04/07 05:31:07;;;;;;;0.30;0.30;;;7.60;99.90;;;;;;5036884;28;20583;-67
2022/04/07 05:33:33;;;;;;;0.30;0.30;;;8.00;99.90;;;;;;5037177;28;20162;-67
2022/04/07 05:35:59;;;;;;;0.30;0.30;;;8.50;99.80;;;;;;5037470;28;20180;-67
2022/04/07 05:38:25;;;;;;;0.30;0.30;;;8.60;98.90;;;;;;5037102;28;20975;-67
2022/04/07 05:40:50;;;;;;;0.33;0.33;;;8.20;99.30;;;;;;5036505;28;20193;-67
2022/04/07 05:43:16;;;;;;;0.40;0.40;;;8.40;99.30;;;;;;5036773;28;20174;-67
2022/04/07 05:45:45;;;;;;;0.40;0.40;;;8.80;98.70;;;;;;5037035;28;20244;-67
2022/04/07 05:48:11;;;;;;;0.30;0.30;;;9.10;98.60;;;;;;5036498;28;20177;-67
2022/04/07 05:50:36;;;;;;;0.30;0.30;;;9.20;97.60;;;;;;5036801;28;20386;-67
2022/04/07 05:53:02;;;;;;;0.30;0.30;;;9.40;97.40;;;;;;5036605;28;20645;-67
2022/04/07 05:55:28;;;;;;;0.30;0.30;;;9.70;97.00;;;;;;5036682;28;20650;-67
2022/04/07 05:57:54;;;;;;;0.30;0.30;;;9.70;96.50;;;;;;5036544;28;20230;-67
2022/04/07 06:00:20;;;;;;;0.30;0.30;;;9.50;96.60;;;;;;5036274;28;20557;-67
2022/04/07 06:02:47;;;;;;;0.30;0.30;;;9.50;97.20;;;;;;5036463;28;20185;-67
2022/04/07 06:05:18;;;;;;;0.30;0.30;;;9.80;96.70;;;;;;5036686;28;20571;-67
2022/04/07 06:07:44;;;;;;;0.30;0.30;;;9.60;96.50;;;;;;5036566;28;20178;-67
2022/04/07 06:10:10;;;;;;;0.30;0.30;;;9.70;97.10;;;;;;5036100;28;20760;-67
2022/04/07 06:12:38;;;;;;;0.40;0.40;;;9.70;96.50;;;;;;5036252;28;20764;-67
2022/04/07 06:15:04;;;;;;;0.35;0.35;;;9.60;96.60;;;;;;5036451;28;20174;-67
2022/04/07 06:17:33;;;;;;;1.15;1.15;;;9.50;97.20;;;;;;5036326;28;20224;-67
2022/04/07 06:19:59;;;;;;;0.30;0.30;;;9.90;97.50;;;;;;5035856;28;20228;-67
2022/04/07 06:22:25;;;;;;;0.30;0.30;;;10.10;96.00;;;;;;5035927;28;20189;-67
2022/04/07 06:24:50;;;;;;;0.30;0.30;;;10.00;95.70;;;;;;5035940;28;20606;-67
2022/04/07 06:27:16;;;;;;;0.30;0.30;;;9.90;96.70;;;;;;5036029;28;20654;-67
2022/04/07 06:29:43;;;;;;;0.30;0.30;;;10.10;95.70;;;;;;5035708;28;20223;-67
2022/04/07 06:32:08;;;;;;;0.30;0.30;;;10.00;95.50;;;;;;5035994;28;20178;-67
2022/04/07 06:34:34;;;;;;;0.30;0.30;;;10.10;95.50;;;;;;5035218;28;20171;-67
2022/04/07 06:37:01;;;;;;;0.30;0.30;;;9.90;95.60;;;;;;5034984;28;20660;-67
2022/04/07 06:39:26;;;;;;;0.30;0.30;;;9.60;96.00;;;;;;5036284;28;20673;-67
2022/04/07 06:41:52;;;;;;;0.30;0.30;;;9.30;97.00;;;;;;5035921;28;20209;-67
2022/04/07 06:44:19;;;;;;;0.30;0.30;;;9.30;97.10;;;;;;5033701;28;20397;-66
2022/04/07 06:46:45;;;;;;;0.30;0.30;;;9.10;97.70;;;;;;5035655;28;20198;-66
2022/04/07 06:49:11;;;;;;;0.30;0.30;;;9.60;98.00;;;;;;5035800;28;20282;-66
2022/04/07 06:51:37;;;;;;;0.30;0.30;;;10.00;97.40;;;;;;5036180;28;20178;-67
2022/04/07 06:54:07;;;;;;;0.30;0.30;;;10.10;96.10;;;;;;5033744;28;20402;-65
2022/04/07 06:56:32;;;;;;;0.30;0.30;;;10.30;96.00;;;;;;5035060;28;20413;-66
2022/04/07 06:58:59;;;;;;;0.30;0.30;;;10.30;95.40;;;;;;5025277;28;20186;-66
2022/04/07 07:01:25;;;;;;;0.30;0.30;;;10.40;95.70;;;;;;5012363;28;20206;-65
2022/04/07 07:03:51;;;;;;;0.30;0.30;;;10.20;94.80;;;;;;5015382;28;20214;-65
2022/04/07 07:06:16;;;;;;;0.30;0.30;;;10.10;95.80;;;;;;5019921;28;20448;-65
2022/04/07 07:08:42;;;;;;;0.30;0.30;;;10.00;95.60;;;;;;5035668;28;20260;-65
2022/04/07 07:11:08;;;;;;;0.30;0.30;;;9.70;96.30;;;;;;5035196;28;20252;-65
2022/04/07 07:13:36;;;;;;;0.30;0.30;;;9.20;97.20;;;;;;5035622;28;20257;-65
2022/04/07 07:16:02;;;;;;;0.30;0.30;;;8.90;97.60;;;;;;5035401;28;20185;-65
2022/04/07 07:18:27;;;;;;;0.30;0.30;;;9.00;98.40;;;;;;5035102;28;20258;-65
2022/04/07 07:20:53;;;;;;;0.30;0.30;;;9.10;98.20;;;;;;5034631;28;20440;-65
2022/04/07 07:23:19;;;;;;;0.30;0.30;;;9.50;97.90;;;;;;5035269;28;20491;-65
2022/04/07 07:25:44;;;;;;;0.30;0.30;;;9.90;97.30;;;;;;5035155;28;20221;-65
2022/04/07 07:28:10;;;;;;;0.30;0.30;;;9.80;96.30;;;;;;5035167;28;20878;-66
2022/04/07 07:30:36;;;;;;;0.30;0.30;;;9.50;97.60;;;;;;5034766;28;20269;-66
2022/04/07 07:33:02;;;;;;;0.30;0.30;;;9.80;97.20;;;;;;5018994;28;20409;-66
2022/04/07 07:35:28;;;;;;;0.30;0.30;;;9.80;96.60;;;;;;5017515;28;20526;-66
2022/04/07 07:37:58;;;;;;;0.30;0.30;;;9.60;96.70;;;;;;5033862;28;20179;-67
2022/04/07 07:40:27;;;;;;;0.30;0.30;;;9.90;96.70;;;;;;5031744;28;20239;-67
2022/04/07 08:05:22;;;;;;;0.30;0.30;;;9.00;99.80;;;;;;4994186;28;20210;-66
2022/04/07 08:11:10;;;;;;;0.30;0.30;;;8.70;99.90;;;;;;4994913;28;20200;-69
2022/04/07 08:13:36;;;;;;;0.30;0.30;;;8.90;99.90;;;;;;4994977;28;20194;-66
2022/04/07 08:16:02;;;;;;;0.30;0.30;;;9.00;99.90;;;;;;4994453;28;20229;-66
2022/04/07 08:18:27;;;;;;;0.30;0.30;;;9.30;99.90;;;;;;4995153;28;20457;-67
2022/04/07 08:20:53;;;;;;;0.30;0.30;;;8.80;99.90;;;;;;4994940;28;20188;-67
2022/04/07 08:23:19;;;;;;;0.30;0.30;;;8.70;99.90;;;;;;4994620;28;20248;-67
2022/04/07 08:25:44;;;;;;;0.30;0.30;;;8.50;99.90;;;;;;4993925;28;20656;-66
2022/04/07 08:28:10;;;;;;;0.30;0.30;;;8.90;99.90;;;;;;4994183;28;20202;-66
2022/04/07 08:30:36;;;;;;;0.30;0.30;;;9.00;99.90;;;;;;4995012;28;20618;-66
2022/04/07 08:33:03;;;;;;;0.30;0.30;;;9.00;99.90;;;;;;4993153;28;20190;-68
2022/04/07 08:35:29;;;;;;;0.30;0.30;;;9.00;99.90;;;;;;4991996;28;20281;-68
2022/04/07 08:37:55;;;;;;;0.30;0.30;;;9.00;99.90;;;;;;4993466;28;20216;-66
2022/04/07 08:40:21;;;;;;;0.30;0.30;;;9.00;99.90;;;;;;4993925;28;20172;-68
2022/04/07 08:42:47;;;;;;;0.30;0.30;;;9.30;99.90;;;;;;4993467;28;20643;-69
2022/04/07 08:45:14;;;;;;;0.80;0.70;;;9.70;99.90;;;;;;4993473;28;20211;-68
2022/04/07 08:47:40;;;;;;;0.65;0.65;;;9.70;99.90;;;;;;4993427;28;20253;-66
2022/04/07 08:50:07;;;;;;;83.38;75.72;;;;;;;;;;4991801;28;20415;-67
2022/04/07 08:52:35;;;;;;;89.15;80.82;;;9.90;99.90;;;;;;4992138;28;20171;-67
2022/04/07 08:55:01;;;;;;;0.40;0.40;;;;;;;;;;4993740;28;20250;-66
2022/04/07 08:57:29;;;;;;;0.30;0.30;;;9.30;99.90;;;;;;4994577;28;20729;-67
2022/04/07 08:59:55;;;;;;;0.30;0.30;;;9.30;99.90;;;;;;4994494;28;20186;-67
2022/04/07 09:02:21;;;;;;;0.30;0.30;;;9.20;99.90;;;;;;4994648;28;20246;-70
2022/04/07 09:04:47;;;;;;;0.30;0.30;;;9.00;99.90;;;;;;4994146;28;20657;-67
2022/04/07 09:07:13;;;;;;;0.30;0.30;;;9.10;99.90;;;;;;4994263;28;20540;-66
2022/04/07 09:09:39;;;;;;;0.40;0.40;;;8.70;99.90;;;;;;4994318;28;20527;-66
2022/04/07 09:12:06;;;;;;;0.37;0.37;;;8.40;99.90;;;;;;4994196;28;20173;-67
2022/04/07 09:14:34;;;;;;;0.30;0.30;;;8.40;99.90;;;;;;4993835;28;20198;-67
2022/04/07 09:17:00;;;;;;;0.30;0.30;;;8.60;99.90;;;;;;4994370;28;20179;-67
2022/04/07 09:19:26;;;;;;;0.30;0.30;;;8.50;99.90;;;;;;4993860;28;20206;-67
2022/04/07 09:22:05;;;;;;;0.30;0.30;;;8.80;99.90;;;;;;4993862;28;20262;-68
2022/04/07 09:24:36;;;;;;;0.30;0.30;;;8.80;99.90;;;;;;4993711;28;20198;-67
2022/04/07 09:27:08;;;;;;;0.30;0.30;;;8.40;99.90;;;;;;4994178;28;20175;-71
2022/04/07 09:29:42;;;;;;;0.30;0.30;;;8.60;99.90;;;;;;4994412;28;20695;-67
2022/04/07 09:32:22;;;;;;;0.30;0.30;;;8.60;99.90;;;;;;4994133;28;20186;-67
2022/04/07 09:34:55;;;;;;;0.40;0.40;;;8.80;99.90;;;;;;4993536;28;20547;-68
2022/04/07 09:37:25;;;;;;;2.35;2.15;;;8.70;99.90;;;;;;4994120;28;20249;-67
2022/04/07 09:40:05;;;;;;;0.30;0.30;;;8.80;99.90;;;;;;4994298;28;20171;-67
2022/04/07 09:42:33;;;;;;;0.30;0.30;;;9.10;99.90;;;;;;4994002;28;20308;-67
2022/04/07 09:45:01;;;;;;;0.30;0.30;;;8.80;99.90;;;;;;4993571;28;20207;-67
2022/04/07 09:47:45;;;;;;;0.30;0.30;;;8.70;99.90;;;;;;4994145;28;20175;-67
2022/04/07 09:50:24;;;;;;;0.30;0.30;;;9.10;99.90;;;;;;4994252;28;20207;-67
2022/04/07 09:52:56;;;;;;;0.40;0.40;;;9.10;99.90;;;;;;4993761;28;20175;-67
2022/04/07 09:55:34;;;;;;;0.30;0.30;;;9.20;99.90;;;;;;4993666;28;20276;-67
2022/04/07 09:58:05;;;;;;;0.30;0.30;;;9.00;99.90;;;;;;4993997;28;20195;-67
2022/04/07 10:00:31;;;;;;;0.30;0.30;;;9.00;99.90;;;;;;4993995;28;20175;-67
2022/04/07 10:02:57;;;;;;;0.30;0.30;;;8.80;99.90;;;;;;4993921;28;20180;-67
2022/04/07 10:05:24;;;;;;;0.40;0.40;;;8.60;99.90;;;;;;4993128;28;20208;-67
2022/04/07 10:07:54;;;;;;;0.30;0.30;;;8.20;99.90;;;;;;4994185;28;20196;-67
2022/04/07 10:10:21;;;;;;;0.30;0.30;;;8.50;99.90;;;;;;4997054;28;20602;-68
2022/04/07 10:12:46;;;;;;;0.30;0.30;;;8.50;99.90;;;;;;4997691;28;20171;-70
2022/04/07 10:15:13;;;;;;;0.30;0.30;;;8.20;99.90;;;;;;4996362;28;20210;-76
2022/04/07 10:24:48;;;;;;;0.30;0.30;;;8.30;99.90;;;;;;4996794;28;20190;-67
2022/04/07 10:27:19;;;;;;;0.40;0.40;;;8.40;99.90;;;;;;4996385;28;20188;-73
2022/04/07 10:30:03;;;;;;;0.30;0.30;;;8.20;99.90;;;;;;4995448;28;20178;-71
2022/04/07 10:32:38;;;;;;;0.30;0.30;;;8.70;99.90;;;;;;4994625;28;20170;-72
2022/04/07 10:35:04;;;;;;;0.30;0.30;;;9.20;99.90;;;;;;4996685;28;20224;-68
2022/04/07 10:40:45;;;;;;;0.30;0.30;;;8.90;99.90;;;;;;5228350;23;20342;-74
2022/04/07 10:43:18;;;;;;;0.30;0.30;;;9.20;99.90;;;;;;4989059;28;20563;-72
2022/04/07 10:45:47;;;;;;;0.30;0.30;;;8.90;99.90;;;;;;4993781;28;20293;-69
2022/04/07 10:48:24;;;;;;;0.40;0.40;;;8.60;99.90;;;;;;4994559;28;20183;-72
2022/04/07 10:51:13;;;;;;;0.30;0.30;;;8.80;99.90;;;;;;4995022;28;20544;-76
2022/04/07 10:53:41;;;;;;;0.60;0.60;;;8.80;99.90;;;;;;4994551;28;20183;-73
2022/04/07 10:56:07;;;;;;;0.30;0.30;;;8.70;99.90;;;;;;4993292;28;20204;-74
2022/04/07 10:58:47;;;;;;;0.30;0.30;;;8.80;99.90;;;;;;4994259;28;20237;-72
2022/04/07 11:01:32;;;;;;;0.30;0.30;;;9.00;99.90;;;;;;4995080;28;20179;-67
2022/04/07 11:04:23;;;;;;;0.30;0.30;;;9.20;99.90;;;;;;4991386;28;20378;-75
2022/04/07 11:35:29;;;;;;;0.30;0.30;;;8.60;99.90;;;;;;5976678;23;20203;-65
2022/04/07 11:37:55;;;;;;;0.30;0.30;;;8.90;99.90;;;;;;4995243;28;20253;-66
2022/04/07 11:40:21;;;;;;;0.30;0.30;;;8.70;99.90;;;;;;4994555;28;20180;-66
2022/04/07 11:42:49;;;;;;;0.30;0.30;;;8.60;99.90;;;;;;4995368;28;20168;-66
2022/04/07 11:45:14;;;;;;;0.30;0.30;;;8.40;99.90;;;;;;4995053;28;20203;-66
2022/04/07 11:47:40;;;;;;;0.30;0.30;;;8.40;99.90;;;;;;4994778;28;20202;-66
2022/04/07 11:50:07;;;;;;;0.37;0.37;;;8.30;99.90;;;;;;4995157;28;20185;-66
2022/04/07 11:52:36;;;;;;;0.30;0.30;;;8.30;99.90;;;;;;4994786;28;20190;-66
2022/04/07 11:55:05;;;;;;;0.30;0.30;;;8.70;99.90;;;;;;4994953;28;20207;-67
2022/04/07 11:57:32;;;;;;;0.30;0.30;;;8.90;99.90;;;;;;4992730;28;20703;-70
2022/04/07 11:59:59;;;;;;;0.30;0.30;;;9.00;99.90;;;;;;4993850;28;20193;-74
2022/04/07 12:02:26;;;;;;;0.30;0.30;;;8.80;99.90;;;;;;4993753;28;20171;-69
2022/04/07 12:04:57;;;;;;;0.30;0.30;;;8.80;99.90;;;;;;4993986;28;20218;-73
2022/04/07 12:07:23;;;;;;;0.30;0.30;;;8.60;99.90;;;;;;4993900;28;20609;-68
2022/04/07 12:09:49;;;;;;;2.23;2.10;;;8.90;99.90;;;;;;4993513;28;20262;-68
2022/04/07 12:12:17;;;;;;;0.30;0.30;;;9.00;99.90;;;;;;4994523;28;20402;-68
2022/04/07 12:14:43;;;;;;;0.30;0.30;;;9.10;99.90;;;;;;4993620;28;20187;-68
2022/04/07 12:17:09;;;;;;;0.30;0.30;;;8.80;99.90;;;;;;4994377;28;20651;-68
2022/04/07 12:19:46;;;;;;;0.30;0.30;;;8.70;99.90;;;;;;4993539;28;20183;-71
2022/04/07 12:22:13;;;;;;;0.30;0.30;;;8.60;99.90;;;;;;4994158;28;20175;-67
2022/04/07 12:24:56;;;;;;;0.30;0.30;;;8.80;99.90;;;;;;4993606;28;20188;-69
2022/04/07 12:27:32;;;;;;;0.30;0.30;;;8.90;99.90;;;;;;4993962;28;20195;-67
2022/04/07 12:29:59;;;;;;;0.30;0.30;;;8.90;99.90;;;;;;4993811;28;20186;-66
2022/04/07 12:32:26;;;;;;;0.30;0.30;;;9.00;99.90;;;;;;4993410;28;20178;-66
2022/04/07 12:34:51;;;;;;;0.30;0.30;;;9.00;99.90;;;;;;4993876;28;20195;-67
2022/04/07 12:37:38;;;;;;;0.30;0.30;;;8.90;99.90;;;;;;4994148;28;20238;-66
2022/04/07 12:40:27;;;;;;;0.30;0.30;;;8.80;99.90;;;;;;4994206;28;20588;-67
2022/04/07 12:43:00;;;;;;;0.30;0.30;;;9.00;99.90;;;;;;4994340;28;20171;-66
2022/04/07 12:45:26;;;;;;;0.30;0.30;;;8.90;99.90;;;;;;4993977;28;20294;-67
2022/04/07 12:48:14;;;;;;;0.30;0.30;;;9.00;99.90;;;;;;4994195;28;20178;-66
2022/04/07 12:50:40;;;;;;;0.30;0.30;;;9.00;99.90;;;;;;4992748;28;20644;-67
2022/04/07 12:53:25;;;;;;;0.30;0.30;;;9.00;99.90;;;;;;4994168;28;20220;-66
2022/04/07 12:55:51;;;;;;;0.30;0.30;;;9.00;99.90;;;;;;4994191;28;20211;-66
2022/04/07 12:58:26;;;;;;;0.30;0.30;;;9.00;99.90;;;;;;4994707;28;20184;-67
2022/04/07 13:01:01;;;;;;;0.50;0.50;;;9.40;99.90;;;;;;4994012;28;20175;-67
2022/04/07 13:03:28;;;;;;;0.30;0.30;;;9.10;99.90;;;;;;4994212;28;20187;-66
2022/04/07 13:05:54;;;;;;;0.30;0.30;;;9.10;99.90;;;;;;4992875;28;20699;-67
2022/04/07 13:08:20;;;;;;;0.30;0.30;;;9.40;99.90;;;;;;4993954;28;20540;-66
2022/04/07 13:10:46;;;;;;;0.30;0.30;;;9.40;99.90;;;;;;4993906;28;20175;-67
2022/04/07 13:13:13;;;;;;;0.30;0.30;;;9.50;99.90;;;;;;4994116;28;20725;-67
2022/04/07 13:15:39;;;;;;;0.30;0.30;;;9.60;99.90;;;;;;4993789;28;20191;-66
2022/04/07 13:18:05;;;;;;;0.30;0.30;;;9.90;99.90;;;;;;4994099;28;20176;-67
2022/04/07 13:20:30;;;;;;;0.30;0.30;;;10.00;99.90;;;;;;4993932;28;20236;-67
2022/04/07 13:22:56;;;;;;;0.30;0.30;;;10.10;99.90;;;;;;4993957;28;20584;-67
2022/04/07 13:25:22;;;;;;;0.30;0.30;;;10.40;99.90;;;;;;4994252;28;20196;-67
2022/04/07 13:27:47;;;;;;;0.30;0.30;;;10.40;99.90;;;;;;4993750;28;20292;-67
2022/04/07 13:30:13;;;;;;;0.30;0.30;;;10.30;99.90;;;;;;4994071;28;20625;-67
2022/04/07 13:32:39;;;;;;;0.30;0.30;;;9.90;99.90;;;;;;4993454;28;20172;-66
2022/04/07 13:35:06;;;;;;;0.30;0.30;;;9.80;99.90;;;;;;4992552;28;20168;-67
2022/04/07 13:37:32;;;;;;;0.30;0.30;;;9.60;99.90;;;;;;4993920;28;20223;-66
2022/04/07 13:39:57;;;;;;;0.30;0.30;;;9.50;99.90;;;;;;4993506;28;20259;-66
2022/04/07 13:42:23;;;;;;;0.30;0.30;;;9.60;99.90;;;;;;4993824;28;20411;-66
2022/04/07 13:44:49;;;;;;;0.30;0.30;;;9.70;99.90;;;;;;4997323;28;20255;-66
2022/04/07 13:47:14;;;;;;;0.30;0.30;;;9.80;99.90;;;;;;4997132;28;20263;-66
2022/04/07 13:49:40;;;;;;;0.30;0.30;;;10.20;99.90;;;;;;4997425;28;20175;-66
2022/04/07 13:52:10;;;;;;;0.30;0.30;;;10.30;99.90;;;;;;4997294;28;20173;-67
2022/04/07 13:54:36;;;;;;;0.30;0.30;;;10.50;99.90;;;;;;4997482;28;20576;-66
2022/04/07 13:57:05;;;;;;;0.30;0.30;;;10.60;99.90;;;;;;4997337;28;20375;-66
2022/04/07 13:59:33;;;;;;;0.30;0.30;;;10.20;99.90;;;;;;4997196;28;20200;-66
2022/04/07 14:01:59;;;;;;;0.30;0.30;;;10.10;99.90;;;;;;4995723;28;20724;-67
2022/04/07 14:04:24;;;;;;;0.30;0.30;;;10.30;99.90;;;;;;4996938;28;20181;-66